sensor_id;sensor_type;location;lat;lon;timestamp;P1;durP1;ratioP1;P2;durP2;ratioP2
3000;SDS011;1510;51.072;6.678;2023-11-21T00:00:34;1068.83;;;825.53;;
3000;SDS011;1510;51.072;6.678;2023-11-21T00:03:02;1072.00;;;832.00;;
3000;SDS011;1510;51.072;6.678;2023-11-21T00:05:30;1081.97;;;831.40;;
3000;SDS011;1510;51.072;6.678;2023-11-21T00:07:56;1095.60;;;841.17;;
3000;SDS011;1510;51.072;6.678;2023-11-21T00:10:23;1081.67;;;835.40;;
3000;SDS011;1510;51.072;6.678;2023-11-21T00:12:50;1097.13;;;838.10;;
3000;SDS011;1510;51.072;6.678;2023-11-21T00:15:20;1102.53;;;845.10;;
3000;SDS011;1510;51.072;6.678;2023-11-21T00:17:46;1095.83;;;837.30;;
3000;SDS011;1510;51.072;6.678;2023-11-21T00:20:15;1094.93;;;856.83;;
3000;SDS011;1510;51.072;6.678;2023-11-21T00:22:42;1118.83;;;869.67;;
3000;SDS011;1510;51.072;6.678;2023-11-21T00:25:09;1112.57;;;864.77;;
3000;SDS011;1510;51.072;6.678;2023-11-21T00:27:36;1100.97;;;839.30;;
3000;SDS011;1510;51.072;6.678;2023-11-21T00:30:03;1103.47;;;835.40;;
3000;SDS011;1510;51.072;6.678;2023-11-21T00:32:31;1106.33;;;833.90;;
3000;SDS011;1510;51.072;6.678;2023-11-21T00:34:58;1088.73;;;835.67;;
3000;SDS011;1510;51.072;6.678;2023-11-21T00:37:27;1086.83;;;840.40;;
3000;SDS011;1510;51.072;6.678;2023-11-21T00:39:54;1086.13;;;835.73;;
3000;SDS011;1510;51.072;6.678;2023-11-21T00:42:21;1083.47;;;838.40;;
3000;SDS011;1510;51.072;6.678;2023-11-21T00:44:48;1069.83;;;836.70;;
3000;SDS011;1510;51.072;6.678;2023-11-21T00:47:15;1072.10;;;847.13;;
3000;SDS011;1510;51.072;6.678;2023-11-21T00:49:42;1066.33;;;848.93;;
3000;SDS011;1510;51.072;6.678;2023-11-21T00:52:09;1070.07;;;846.80;;
3000;SDS011;1510;51.072;6.678;2023-11-21T00:54:37;1087.47;;;870.23;;
3000;SDS011;1510;51.072;6.678;2023-11-21T00:57:04;1082.80;;;855.90;;
3000;SDS011;1510;51.072;6.678;2023-11-21T00:59:33;1075.67;;;850.27;;
3000;SDS011;1510;51.072;6.678;2023-11-21T01:02:00;1076.13;;;866.90;;
3000;SDS011;1510;51.072;6.678;2023-11-21T01:04:27;1097.50;;;860.60;;
3000;SDS011;1510;51.072;6.678;2023-11-21T01:06:54;1091.53;;;858.43;;
3000;SDS011;1510;51.072;6.678;2023-11-21T01:09:21;1091.13;;;860.40;;
3000;SDS011;1510;51.072;6.678;2023-11-21T01:11:50;1100.77;;;853.77;;
3000;SDS011;1510;51.072;6.678;2023-11-21T01:14:17;1104.10;;;854.73;;
3000;SDS011;1510;51.072;6.678;2023-11-21T01:16:44;1106.43;;;863.10;;
3000;SDS011;1510;51.072;6.678;2023-11-21T01:19:11;1100.53;;;858.73;;
3000;SDS011;1510;51.072;6.678;2023-11-21T01:21:38;1109.30;;;849.63;;
3000;SDS011;1510;51.072;6.678;2023-11-21T01:24:05;1114.03;;;858.03;;
3000;SDS011;1510;51.072;6.678;2023-11-21T01:26:32;1122.83;;;868.27;;
3000;SDS011;1510;51.072;6.678;2023-11-21T01:29:00;1143.77;;;865.20;;
3000;SDS011;1510;51.072;6.678;2023-11-21T01:31:27;1150.30;;;879.87;;
3000;SDS011;1510;51.072;6.678;2023-11-21T01:33:55;1161.67;;;873.87;;
3000;SDS011;1510;51.072;6.678;2023-11-21T01:36:21;1169.93;;;871.17;;
3000;SDS011;1510;51.072;6.678;2023-11-21T01:38:48;1178.53;;;880.93;;
3000;SDS011;1510;51.072;6.678;2023-11-21T01:41:14;1177.60;;;890.20;;
3000;SDS011;1510;51.072;6.678;2023-11-21T01:43:41;1180.63;;;883.43;;
3000;SDS011;1510;51.072;6.678;2023-11-21T01:46:09;1197.33;;;873.80;;
3000;SDS011;1510;51.072;6.678;2023-11-21T01:48:36;1193.43;;;862.40;;
3000;SDS011;1510;51.072;6.678;2023-11-21T01:51:03;1200.47;;;871.83;;
3000;SDS011;1510;51.072;6.678;2023-11-21T01:53:31;1190.23;;;869.87;;
3000;SDS011;1510;51.072;6.678;2023-11-21T01:55:58;1187.50;;;875.63;;
3000;SDS011;1510;51.072;6.678;2023-11-21T01:58:25;1190.20;;;878.40;;
3000;SDS011;1510;51.072;6.678;2023-11-21T02:00:52;1184.90;;;876.30;;
3000;SDS011;1510;51.072;6.678;2023-11-21T02:03:21;1193.03;;;887.23;;
3000;SDS011;1510;51.072;6.678;2023-11-21T02:05:48;1201.97;;;889.90;;
3000;SDS011;1510;51.072;6.678;2023-11-21T02:08:15;1203.57;;;898.40;;
3000;SDS011;1510;51.072;6.678;2023-11-21T02:10:42;1205.87;;;884.47;;
3000;SDS011;1510;51.072;6.678;2023-11-21T02:13:09;1197.47;;;895.10;;
3000;SDS011;1510;51.072;6.678;2023-11-21T02:15:36;1200.30;;;878.67;;
3000;SDS011;1510;51.072;6.678;2023-11-21T02:18:03;1191.60;;;876.27;;
3000;SDS011;1510;51.072;6.678;2023-11-21T02:20:32;1195.80;;;886.47;;
3000;SDS011;1510;51.072;6.678;2023-11-21T02:23:01;1200.27;;;883.23;;
3000;SDS011;1510;51.072;6.678;2023-11-21T02:25:28;1202.87;;;884.67;;
3000;SDS011;1510;51.072;6.678;2023-11-21T02:27:57;1211.50;;;886.07;;
3000;SDS011;1510;51.072;6.678;2023-11-21T02:30:25;1203.17;;;890.87;;
3000;SDS011;1510;51.072;6.678;2023-11-21T02:32:53;1187.23;;;877.00;;
3000;SDS011;1510;51.072;6.678;2023-11-21T02:35:22;1190.13;;;886.57;;
3000;SDS011;1510;51.072;6.678;2023-11-21T02:37:50;1199.43;;;877.07;;
3000;SDS011;1510;51.072;6.678;2023-11-21T02:40:19;1197.87;;;884.77;;
3000;SDS011;1510;51.072;6.678;2023-11-21T02:42:46;1206.13;;;892.13;;
3000;SDS011;1510;51.072;6.678;2023-11-21T02:45:13;1215.67;;;900.33;;
3000;SDS011;1510;51.072;6.678;2023-11-21T02:47:41;1199.83;;;884.77;;
3000;SDS011;1510;51.072;6.678;2023-11-21T02:50:08;1229.33;;;901.47;;
3000;SDS011;1510;51.072;6.678;2023-11-21T02:52:36;1236.73;;;896.57;;
3000;SDS011;1510;51.072;6.678;2023-11-21T02:55:03;1228.40;;;900.97;;
3000;SDS011;1510;51.072;6.678;2023-11-21T02:57:33;1228.03;;;886.53;;
3000;SDS011;1510;51.072;6.678;2023-11-21T03:00:00;1238.80;;;891.43;;
3000;SDS011;1510;51.072;6.678;2023-11-21T03:02:27;1228.20;;;890.53;;
3000;SDS011;1510;51.072;6.678;2023-11-21T03:04:54;1235.73;;;897.00;;
3000;SDS011;1510;51.072;6.678;2023-11-21T03:07:21;1232.43;;;894.90;;
3000;SDS011;1510;51.072;6.678;2023-11-21T03:09:48;1217.00;;;899.17;;
3000;SDS011;1510;51.072;6.678;2023-11-21T03:12:15;1219.83;;;909.07;;
3000;SDS011;1510;51.072;6.678;2023-11-21T03:14:43;1219.70;;;902.37;;
3000;SDS011;1510;51.072;6.678;2023-11-21T03:17:10;1220.87;;;903.37;;
3000;SDS011;1510;51.072;6.678;2023-11-21T03:19:40;1205.83;;;870.47;;
3000;SDS011;1510;51.072;6.678;2023-11-21T03:22:07;1215.37;;;866.80;;
3000;SDS011;1510;51.072;6.678;2023-11-21T03:24:34;1221.63;;;861.67;;
3000;SDS011;1510;51.072;6.678;2023-11-21T03:27:03;1214.37;;;857.73;;
3000;SDS011;1510;51.072;6.678;2023-11-21T03:29:30;1216.87;;;861.20;;
3000;SDS011;1510;51.072;6.678;2023-11-21T03:34:52;1213.10;;;856.50;;
3000;SDS011;1510;51.072;6.678;2023-11-21T03:37:21;1215.93;;;855.20;;
3000;SDS011;1510;51.072;6.678;2023-11-21T03:39:48;1204.97;;;855.93;;
3000;SDS011;1510;51.072;6.678;2023-11-21T03:42:15;1199.70;;;847.50;;
3000;SDS011;1510;51.072;6.678;2023-11-21T03:44:42;1215.53;;;854.17;;
3000;SDS011;1510;51.072;6.678;2023-11-21T03:47:09;1202.73;;;851.50;;
3000;SDS011;1510;51.072;6.678;2023-11-21T03:49:37;1194.70;;;854.70;;
3000;SDS011;1510;51.072;6.678;2023-11-21T03:52:05;1171.73;;;846.43;;
3000;SDS011;1510;51.072;6.678;2023-11-21T03:54:34;1172.93;;;858.50;;
3000;SDS011;1510;51.072;6.678;2023-11-21T03:57:01;1178.20;;;844.00;;
3000;SDS011;1510;51.072;6.678;2023-11-21T03:59:28;1189.43;;;846.27;;
3000;SDS011;1510;51.072;6.678;2023-11-21T04:01:55;1181.53;;;840.00;;
3000;SDS011;1510;51.072;6.678;2023-11-21T04:04:23;1176.80;;;845.17;;
3000;SDS011;1510;51.072;6.678;2023-11-21T04:06:51;1172.53;;;842.80;;
3000;SDS011;1510;51.072;6.678;2023-11-21T04:09:18;1155.83;;;840.90;;
3000;SDS011;1510;51.072;6.678;2023-11-21T04:11:45;1148.83;;;839.60;;
3000;SDS011;1510;51.072;6.678;2023-11-21T04:14:12;1152.00;;;844.30;;
3000;SDS011;1510;51.072;6.678;2023-11-21T04:16:40;1186.43;;;844.40;;
3000;SDS011;1510;51.072;6.678;2023-11-21T04:19:07;1159.00;;;850.37;;
3000;SDS011;1510;51.072;6.678;2023-11-21T04:21:35;1165.97;;;841.60;;
3000;SDS011;1510;51.072;6.678;2023-11-21T04:24:04;1164.37;;;841.97;;
3000;SDS011;1510;51.072;6.678;2023-11-21T04:26:31;1161.00;;;837.77;;
3000;SDS011;1510;51.072;6.678;2023-11-21T04:28:58;1172.47;;;844.23;;
3000;SDS011;1510;51.072;6.678;2023-11-21T04:31:25;1181.60;;;846.57;;
3000;SDS011;1510;51.072;6.678;2023-11-21T04:33:52;1169.67;;;845.80;;
3000;SDS011;1510;51.072;6.678;2023-11-21T04:36:19;1182.93;;;849.53;;
3000;SDS011;1510;51.072;6.678;2023-11-21T04:38:46;1157.77;;;848.60;;
3000;SDS011;1510;51.072;6.678;2023-11-21T04:41:14;1165.97;;;846.23;;
3000;SDS011;1510;51.072;6.678;2023-11-21T04:43:40;1168.47;;;836.43;;
3000;SDS011;1510;51.072;6.678;2023-11-21T04:46:07;1167.73;;;840.80;;
3000;SDS011;1510;51.072;6.678;2023-11-21T04:48:34;1173.90;;;829.50;;
3000;SDS011;1510;51.072;6.678;2023-11-21T04:51:01;1168.17;;;838.27;;
3000;SDS011;1510;51.072;6.678;2023-11-21T04:53:29;1155.63;;;827.00;;
3000;SDS011;1510;51.072;6.678;2023-11-21T04:55:56;1160.40;;;825.00;;
3000;SDS011;1510;51.072;6.678;2023-11-21T04:58:24;1152.83;;;817.53;;
3000;SDS011;1510;51.072;6.678;2023-11-21T05:00:51;1148.27;;;821.23;;
3000;SDS011;1510;51.072;6.678;2023-11-21T05:03:18;1150.63;;;835.50;;
3000;SDS011;1510;51.072;6.678;2023-11-21T05:05:45;1137.93;;;827.47;;
3000;SDS011;1510;51.072;6.678;2023-11-21T05:08:12;1130.80;;;824.43;;
3000;SDS011;1510;51.072;6.678;2023-11-21T05:10:39;1128.43;;;830.30;;
3000;SDS011;1510;51.072;6.678;2023-11-21T05:13:06;1123.77;;;837.50;;
3000;SDS011;1510;51.072;6.678;2023-11-21T05:15:37;1126.90;;;843.03;;
3000;SDS011;1510;51.072;6.678;2023-11-21T05:18:04;1157.57;;;832.07;;
3000;SDS011;1510;51.072;6.678;2023-11-21T05:20:31;1138.60;;;821.70;;
3000;SDS011;1510;51.072;6.678;2023-11-21T05:22:58;1150.93;;;830.50;;
3000;SDS011;1510;51.072;6.678;2023-11-21T05:25:25;1140.40;;;816.23;;
3000;SDS011;1510;51.072;6.678;2023-11-21T05:27:52;1126.70;;;830.27;;
3000;SDS011;1510;51.072;6.678;2023-11-21T05:30:20;1125.83;;;810.53;;
3000;SDS011;1510;51.072;6.678;2023-11-21T05:32:49;1139.00;;;835.73;;
3000;SDS011;1510;51.072;6.678;2023-11-21T05:35:16;1121.97;;;825.70;;
3000;SDS011;1510;51.072;6.678;2023-11-21T05:37:43;1119.97;;;830.40;;
3000;SDS011;1510;51.072;6.678;2023-11-21T05:40:10;1122.00;;;842.30;;
3000;SDS011;1510;51.072;6.678;2023-11-21T05:42:38;1146.37;;;837.57;;
3000;SDS011;1510;51.072;6.678;2023-11-21T05:45:06;1126.77;;;837.83;;
3000;SDS011;1510;51.072;6.678;2023-11-21T05:47:36;1139.93;;;828.40;;
3000;SDS011;1510;51.072;6.678;2023-11-21T05:50:06;1120.30;;;834.33;;
3000;SDS011;1510;51.072;6.678;2023-11-21T05:52:35;1154.57;;;839.33;;
3000;SDS011;1510;51.072;6.678;2023-11-21T05:55:02;1172.90;;;840.67;;
3000;SDS011;1510;51.072;6.678;2023-11-21T05:57:32;1173.90;;;843.70;;
3000;SDS011;1510;51.072;6.678;2023-11-21T05:59:59;1169.00;;;837.90;;
3000;SDS011;1510;51.072;6.678;2023-11-21T06:02:28;1189.27;;;854.00;;
3000;SDS011;1510;51.072;6.678;2023-11-21T06:04:55;1179.67;;;836.13;;
3000;SDS011;1510;51.072;6.678;2023-11-21T06:07:23;1172.23;;;831.57;;
3000;SDS011;1510;51.072;6.678;2023-11-21T06:09:50;1172.73;;;832.00;;
3000;SDS011;1510;51.072;6.678;2023-11-21T06:12:17;1172.07;;;827.13;;
3000;SDS011;1510;51.072;6.678;2023-11-21T06:14:45;1177.63;;;834.10;;
3000;SDS011;1510;51.072;6.678;2023-11-21T06:17:13;1163.03;;;822.47;;
3000;SDS011;1510;51.072;6.678;2023-11-21T06:19:40;1158.63;;;827.63;;
3000;SDS011;1510;51.072;6.678;2023-11-21T06:22:06;1177.17;;;826.67;;
3000;SDS011;1510;51.072;6.678;2023-11-21T06:24:35;1182.47;;;817.53;;
3000;SDS011;1510;51.072;6.678;2023-11-21T06:27:03;1204.80;;;831.80;;
3000;SDS011;1510;51.072;6.678;2023-11-21T06:29:30;1211.03;;;837.40;;
3000;SDS011;1510;51.072;6.678;2023-11-21T06:31:58;1198.90;;;830.30;;
3000;SDS011;1510;51.072;6.678;2023-11-21T06:34:25;1217.83;;;830.70;;
3000;SDS011;1510;51.072;6.678;2023-11-21T06:36:53;1196.77;;;852.63;;
3000;SDS011;1510;51.072;6.678;2023-11-21T06:39:19;1212.53;;;865.63;;
3000;SDS011;1510;51.072;6.678;2023-11-21T06:41:49;1206.40;;;853.10;;
3000;SDS011;1510;51.072;6.678;2023-11-21T06:44:15;1232.93;;;869.73;;
3000;SDS011;1510;51.072;6.678;2023-11-21T06:46:42;1200.87;;;862.40;;
3000;SDS011;1510;51.072;6.678;2023-11-21T06:49:10;1209.73;;;852.20;;
3000;SDS011;1510;51.072;6.678;2023-11-21T06:51:37;1212.10;;;875.33;;
3000;SDS011;1510;51.072;6.678;2023-11-21T06:54:04;1217.30;;;865.07;;
3000;SDS011;1510;51.072;6.678;2023-11-21T06:56:32;1205.60;;;866.60;;
3000;SDS011;1510;51.072;6.678;2023-11-21T06:59:00;1194.27;;;865.63;;
3000;SDS011;1510;51.072;6.678;2023-11-21T07:01:28;1196.30;;;878.60;;
3000;SDS011;1510;51.072;6.678;2023-11-21T07:03:55;1195.53;;;867.17;;
3000;SDS011;1510;51.072;6.678;2023-11-21T07:06:21;1195.37;;;865.53;;
3000;SDS011;1510;51.072;6.678;2023-11-21T07:08:48;1203.60;;;864.30;;
3000;SDS011;1510;51.072;6.678;2023-11-21T07:11:15;1180.90;;;871.50;;
3000;SDS011;1510;51.072;6.678;2023-11-21T07:13:42;1190.00;;;869.20;;
3000;SDS011;1510;51.072;6.678;2023-11-21T07:16:10;1162.20;;;852.80;;
3000;SDS011;1510;51.072;6.678;2023-11-21T07:18:37;1138.07;;;840.40;;
3000;SDS011;1510;51.072;6.678;2023-11-21T07:21:05;1148.30;;;860.53;;
3000;SDS011;1510;51.072;6.678;2023-11-21T07:23:33;1151.47;;;853.37;;
3000;SDS011;1510;51.072;6.678;2023-11-21T07:26:01;1188.30;;;844.40;;
3000;SDS011;1510;51.072;6.678;2023-11-21T07:28:28;1158.23;;;844.20;;
3000;SDS011;1510;51.072;6.678;2023-11-21T07:30:56;1169.70;;;839.00;;
3000;SDS011;1510;51.072;6.678;2023-11-21T07:33:26;1158.13;;;851.57;;
3000;SDS011;1510;51.072;6.678;2023-11-21T07:35:53;1158.97;;;859.27;;
3000;SDS011;1510;51.072;6.678;2023-11-21T07:38:20;1167.83;;;858.10;;
3000;SDS011;1510;51.072;6.678;2023-11-21T07:40:46;1161.00;;;867.33;;
3000;SDS011;1510;51.072;6.678;2023-11-21T07:43:13;1155.20;;;854.53;;
3000;SDS011;1510;51.072;6.678;2023-11-21T07:45:40;1161.63;;;863.47;;
3000;SDS011;1510;51.072;6.678;2023-11-21T07:48:07;1143.33;;;855.50;;
3000;SDS011;1510;51.072;6.678;2023-11-21T07:50:35;1177.90;;;857.50;;
3000;SDS011;1510;51.072;6.678;2023-11-21T07:53:02;1165.70;;;857.90;;
3000;SDS011;1510;51.072;6.678;2023-11-21T07:55:30;1155.83;;;849.50;;
3000;SDS011;1510;51.072;6.678;2023-11-21T07:57:58;1147.20;;;853.37;;
3000;SDS011;1510;51.072;6.678;2023-11-21T08:00:25;1148.83;;;848.43;;
3000;SDS011;1510;51.072;6.678;2023-11-21T08:02:55;1135.67;;;826.03;;
3000;SDS011;1510;51.072;6.678;2023-11-21T08:05:22;1133.50;;;843.30;;
3000;SDS011;1510;51.072;6.678;2023-11-21T08:07:50;1139.93;;;835.37;;
3000;SDS011;1510;51.072;6.678;2023-11-21T08:10:17;1122.00;;;856.13;;
3000;SDS011;1510;51.072;6.678;2023-11-21T08:12:44;1104.77;;;851.97;;
3000;SDS011;1510;51.072;6.678;2023-11-21T08:15:11;1127.50;;;857.00;;
3000;SDS011;1510;51.072;6.678;2023-11-21T08:17:38;1105.83;;;847.20;;
3000;SDS011;1510;51.072;6.678;2023-11-21T08:20:05;1094.07;;;854.40;;
3000;SDS011;1510;51.072;6.678;2023-11-21T08:22:33;1082.93;;;827.23;;
3000;SDS011;1510;51.072;6.678;2023-11-21T08:25:02;1103.00;;;842.30;;
3000;SDS011;1510;51.072;6.678;2023-11-21T08:27:29;1095.10;;;838.70;;
3000;SDS011;1510;51.072;6.678;2023-11-21T08:29:56;1074.13;;;830.93;;
3000;SDS011;1510;51.072;6.678;2023-11-21T08:32:23;1070.53;;;826.60;;
3000;SDS011;1510;51.072;6.678;2023-11-21T08:34:50;1066.70;;;819.73;;
3000;SDS011;1510;51.072;6.678;2023-11-21T08:37:17;1059.23;;;830.00;;
3000;SDS011;1510;51.072;6.678;2023-11-21T08:39:44;1041.60;;;829.80;;
3000;SDS011;1510;51.072;6.678;2023-11-21T08:42:12;1033.37;;;828.07;;
3000;SDS011;1510;51.072;6.678;2023-11-21T08:44:40;1030.27;;;827.73;;
3000;SDS011;1510;51.072;6.678;2023-11-21T08:47:07;1012.70;;;825.50;;
3000;SDS011;1510;51.072;6.678;2023-11-21T08:49:33;983.67;;;830.03;;
3000;SDS011;1510;51.072;6.678;2023-11-21T08:52:00;928.00;;;827.75;;
3000;SDS011;1510;51.072;6.678;2023-11-21T08:54:27;926.07;;;835.80;;
3000;SDS011;1510;51.072;6.678;2023-11-21T08:56:54;920.83;;;832.43;;
3000;SDS011;1510;51.072;6.678;2023-11-21T08:59:24;933.00;;;845.60;;
3000;SDS011;1510;51.072;6.678;2023-11-21T09:01:51;932.67;;;843.83;;
3000;SDS011;1510;51.072;6.678;2023-11-21T09:04:18;930.67;;;842.87;;
3000;SDS011;1510;51.072;6.678;2023-11-21T09:06:44;935.47;;;851.90;;
3000;SDS011;1510;51.072;6.678;2023-11-21T09:09:11;923.40;;;842.93;;
3000;SDS011;1510;51.072;6.678;2023-11-21T09:11:39;923.47;;;844.07;;
3000;SDS011;1510;51.072;6.678;2023-11-21T09:14:05;922.07;;;840.80;;
3000;SDS011;1510;51.072;6.678;2023-11-21T09:16:35;924.80;;;841.73;;
3000;SDS011;1510;51.072;6.678;2023-11-21T09:19:01;926.13;;;848.50;;
3000;SDS011;1510;51.072;6.678;2023-11-21T09:21:30;917.33;;;842.83;;
3000;SDS011;1510;51.072;6.678;2023-11-21T09:23:58;924.53;;;849.67;;
3000;SDS011;1510;51.072;6.678;2023-11-21T09:26:25;927.57;;;855.03;;
3000;SDS011;1510;51.072;6.678;2023-11-21T09:28:51;935.77;;;864.57;;
3000;SDS011;1510;51.072;6.678;2023-11-21T09:31:19;930.00;;;860.93;;
3000;SDS011;1510;51.072;6.678;2023-11-21T09:33:49;929.63;;;859.00;;
3000;SDS011;1510;51.072;6.678;2023-11-21T09:36:16;919.43;;;849.90;;
3000;SDS011;1510;51.072;6.678;2023-11-21T09:38:43;926.07;;;856.40;;
3000;SDS011;1510;51.072;6.678;2023-11-21T09:41:11;934.07;;;863.77;;
3000;SDS011;1510;51.072;6.678;2023-11-21T09:43:47;915.37;;;847.77;;
3000;SDS011;1510;51.072;6.678;2023-11-21T09:46:17;922.77;;;853.47;;
3000;SDS011;1510;51.072;6.678;2023-11-21T09:48:50;913.83;;;844.97;;
3000;SDS011;1510;51.072;6.678;2023-11-21T09:51:18;909.37;;;841.20;;
3000;SDS011;1510;51.072;6.678;2023-11-21T09:53:48;913.00;;;844.20;;
3000;SDS011;1510;51.072;6.678;2023-11-21T09:56:18;906.47;;;840.50;;
3000;SDS011;1510;51.072;6.678;2023-11-21T09:58:50;902.23;;;837.23;;
3000;SDS011;1510;51.072;6.678;2023-11-21T10:01:18;901.37;;;838.17;;
3000;SDS011;1510;51.072;6.678;2023-11-21T10:03:47;868.33;;;810.67;;
3000;SDS011;1510;51.072;6.678;2023-11-21T10:06:15;844.07;;;790.27;;
3000;SDS011;1510;51.072;6.678;2023-11-21T10:08:45;844.77;;;791.47;;
3000;SDS011;1510;51.072;6.678;2023-11-21T10:11:13;843.57;;;790.70;;
3000;SDS011;1510;51.072;6.678;2023-11-21T10:13:43;758.23;;;715.60;;
3000;SDS011;1510;51.072;6.678;2023-11-21T10:16:12;791.20;;;745.27;;
3000;SDS011;1510;51.072;6.678;2023-11-21T10:18:46;768.03;;;725.83;;
3000;SDS011;1510;51.072;6.678;2023-11-21T10:21:19;735.83;;;697.53;;
3000;SDS011;1510;51.072;6.678;2023-11-21T10:23:46;671.00;;;636.47;;
3000;SDS011;1510;51.072;6.678;2023-11-21T10:26:13;626.60;;;595.97;;
3000;SDS011;1510;51.072;6.678;2023-11-21T10:28:41;519.63;;;495.73;;
3000;SDS011;1510;51.072;6.678;2023-11-21T10:31:21;451.80;;;430.67;;
3000;SDS011;1510;51.072;6.678;2023-11-21T10:33:50;386.73;;;370.53;;
3000;SDS011;1510;51.072;6.678;2023-11-21T10:36:27;499.67;;;477.63;;
3000;SDS011;1510;51.072;6.678;2023-11-21T10:38:55;518.93;;;494.60;;
3000;SDS011;1510;51.072;6.678;2023-11-21T10:41:22;422.30;;;404.13;;
3000;SDS011;1510;51.072;6.678;2023-11-21T10:43:52;397.87;;;380.07;;
3000;SDS011;1510;51.072;6.678;2023-11-21T10:46:20;341.13;;;325.47;;
3000;SDS011;1510;51.072;6.678;2023-11-21T10:48:53;358.20;;;342.20;;
3000;SDS011;1510;51.072;6.678;2023-11-21T10:51:23;398.43;;;382.07;;
3000;SDS011;1510;51.072;6.678;2023-11-21T10:53:51;392.90;;;376.13;;
3000;SDS011;1510;51.072;6.678;2023-11-21T10:56:18;324.93;;;310.43;;
3000;SDS011;1510;51.072;6.678;2023-11-21T10:58:46;297.97;;;284.67;;
3000;SDS011;1510;51.072;6.678;2023-11-21T11:01:15;299.67;;;285.77;;
3000;SDS011;1510;51.072;6.678;2023-11-21T11:03:46;289.50;;;277.40;;
3000;SDS011;1510;51.072;6.678;2023-11-21T11:06:15;321.97;;;308.00;;
3000;SDS011;1510;51.072;6.678;2023-11-21T11:08:42;341.90;;;326.90;;
3000;SDS011;1510;51.072;6.678;2023-11-21T11:11:10;326.60;;;312.87;;
3000;SDS011;1510;51.072;6.678;2023-11-21T11:13:39;373.33;;;357.33;;
3000;SDS011;1510;51.072;6.678;2023-11-21T11:16:10;338.87;;;324.37;;
3000;SDS011;1510;51.072;6.678;2023-11-21T11:18:42;313.37;;;299.87;;
3000;SDS011;1510;51.072;6.678;2023-11-21T11:21:15;293.10;;;281.17;;
3000;SDS011;1510;51.072;6.678;2023-11-21T11:23:58;191.27;;;181.77;;
3000;SDS011;1510;51.072;6.678;2023-11-21T11:26:42;275.20;;;263.17;;
3000;SDS011;1510;51.072;6.678;2023-11-21T11:29:18;315.40;;;302.33;;
3000;SDS011;1510;51.072;6.678;2023-11-21T11:31:55;341.70;;;327.17;;
3000;SDS011;1510;51.072;6.678;2023-11-21T11:34:32;379.50;;;363.83;;
3000;SDS011;1510;51.072;6.678;2023-11-21T11:37:05;383.40;;;366.70;;
3000;SDS011;1510;51.072;6.678;2023-11-21T11:39:35;386.87;;;370.60;;
3000;SDS011;1510;51.072;6.678;2023-11-21T11:42:03;366.40;;;350.17;;
3000;SDS011;1510;51.072;6.678;2023-11-21T11:44:49;417.60;;;399.53;;
3000;SDS011;1510;51.072;6.678;2023-11-21T11:47:21;440.97;;;421.37;;
3000;SDS011;1510;51.072;6.678;2023-11-21T11:49:58;471.60;;;448.37;;
3000;SDS011;1510;51.072;6.678;2023-11-21T11:52:34;498.83;;;473.70;;
3000;SDS011;1510;51.072;6.678;2023-11-21T11:55:02;493.90;;;469.97;;
3000;SDS011;1510;51.072;6.678;2023-11-21T11:57:30;519.53;;;493.77;;
3000;SDS011;1510;51.072;6.678;2023-11-21T12:00:07;492.50;;;468.80;;
3000;SDS011;1510;51.072;6.678;2023-11-21T12:02:36;503.17;;;480.00;;
3000;SDS011;1510;51.072;6.678;2023-11-21T12:05:08;481.60;;;459.60;;
3000;SDS011;1510;51.072;6.678;2023-11-21T12:07:44;457.20;;;436.60;;
3000;SDS011;1510;51.072;6.678;2023-11-21T12:10:13;446.43;;;425.93;;
3000;SDS011;1510;51.072;6.678;2023-11-21T12:12:43;454.30;;;435.00;;
3000;SDS011;1510;51.072;6.678;2023-11-21T12:15:11;426.67;;;409.03;;
3000;SDS011;1510;51.072;6.678;2023-11-21T12:17:39;433.27;;;415.00;;
3000;SDS011;1510;51.072;6.678;2023-11-21T12:20:06;371.83;;;356.80;;
3000;SDS011;1510;51.072;6.678;2023-11-21T12:22:41;367.27;;;352.23;;
3000;SDS011;1510;51.072;6.678;2023-11-21T12:25:10;289.47;;;277.40;;
3000;SDS011;1510;51.072;6.678;2023-11-21T12:27:41;232.40;;;222.40;;
3000;SDS011;1510;51.072;6.678;2023-11-21T12:30:10;206.63;;;196.80;;
3000;SDS011;1510;51.072;6.678;2023-11-21T12:32:40;179.87;;;171.57;;
3000;SDS011;1510;51.072;6.678;2023-11-21T12:35:08;118.93;;;112.37;;
3000;SDS011;1510;51.072;6.678;2023-11-21T12:37:36;84.83;;;78.73;;
3000;SDS011;1510;51.072;6.678;2023-11-21T12:40:05;69.33;;;64.43;;
3000;SDS011;1510;51.072;6.678;2023-11-21T12:42:34;89.00;;;83.70;;
3000;SDS011;1510;51.072;6.678;2023-11-21T12:45:09;81.17;;;76.37;;
3000;SDS011;1510;51.072;6.678;2023-11-21T12:47:45;92.43;;;86.57;;
3000;SDS011;1510;51.072;6.678;2023-11-21T12:50:13;90.63;;;84.80;;
3000;SDS011;1510;51.072;6.678;2023-11-21T12:52:41;105.90;;;99.93;;
3000;SDS011;1510;51.072;6.678;2023-11-21T12:55:13;105.70;;;98.57;;
3000;SDS011;1510;51.072;6.678;2023-11-21T12:57:43;114.07;;;107.07;;
3000;SDS011;1510;51.072;6.678;2023-11-21T13:00:12;139.07;;;131.90;;
3000;SDS011;1510;51.072;6.678;2023-11-21T13:02:52;147.67;;;140.37;;
3000;SDS011;1510;51.072;6.678;2023-11-21T13:05:25;149.23;;;141.07;;
3000;SDS011;1510;51.072;6.678;2023-11-21T13:07:56;140.13;;;132.60;;
3000;SDS011;1510;51.072;6.678;2023-11-21T13:10:25;151.87;;;144.83;;
3000;SDS011;1510;51.072;6.678;2023-11-21T13:12:57;155.60;;;148.13;;
3000;SDS011;1510;51.072;6.678;2023-11-21T13:15:25;159.30;;;150.77;;
3000;SDS011;1510;51.072;6.678;2023-11-21T13:17:53;166.13;;;157.13;;
3000;SDS011;1510;51.072;6.678;2023-11-21T13:20:21;210.47;;;201.07;;
3000;SDS011;1510;51.072;6.678;2023-11-21T13:22:49;172.13;;;163.73;;
3000;SDS011;1510;51.072;6.678;2023-11-21T13:25:19;270.13;;;258.63;;
3000;SDS011;1510;51.072;6.678;2023-11-21T13:27:47;248.83;;;238.33;;
3000;SDS011;1510;51.072;6.678;2023-11-21T13:30:16;324.67;;;311.33;;
3000;SDS011;1510;51.072;6.678;2023-11-21T13:32:46;304.90;;;292.73;;
3000;SDS011;1510;51.072;6.678;2023-11-21T13:35:16;287.50;;;275.33;;
3000;SDS011;1510;51.072;6.678;2023-11-21T13:37:48;318.00;;;304.50;;
3000;SDS011;1510;51.072;6.678;2023-11-21T13:40:20;315.70;;;301.73;;
3000;SDS011;1510;51.072;6.678;2023-11-21T13:42:50;535.38;;;509.98;;
3000;SDS011;1510;51.072;6.678;2023-11-21T13:45:21;639.97;;;605.13;;
3000;SDS011;1510;51.072;6.678;2023-11-21T13:47:49;592.70;;;563.07;;
3000;SDS011;1510;51.072;6.678;2023-11-21T13:50:17;504.30;;;480.90;;
3000;SDS011;1510;51.072;6.678;2023-11-21T13:52:48;502.47;;;478.33;;
3000;SDS011;1510;51.072;6.678;2023-11-21T13:55:18;413.90;;;396.30;;
3000;SDS011;1510;51.072;6.678;2023-11-21T13:57:45;423.67;;;404.87;;
3000;SDS011;1510;51.072;6.678;2023-11-21T14:00:15;393.17;;;376.77;;
3000;SDS011;1510;51.072;6.678;2023-11-21T14:02:57;377.27;;;361.67;;
3000;SDS011;1510;51.072;6.678;2023-11-21T14:05:25;401.40;;;383.30;;
3000;SDS011;1510;51.072;6.678;2023-11-21T14:07:54;404.90;;;387.60;;
3000;SDS011;1510;51.072;6.678;2023-11-21T14:10:27;422.97;;;403.57;;
3000;SDS011;1510;51.072;6.678;2023-11-21T14:13:02;415.77;;;397.60;;
3000;SDS011;1510;51.072;6.678;2023-11-21T14:15:30;452.93;;;432.77;;
3000;SDS011;1510;51.072;6.678;2023-11-21T14:17:59;491.63;;;468.20;;
3000;SDS011;1510;51.072;6.678;2023-11-21T14:20:30;505.60;;;482.07;;
3000;SDS011;1510;51.072;6.678;2023-11-21T14:22:58;557.63;;;529.17;;